Picayune, MS (39466)

01:08 AM CDT die 31o October, anno 2014 (GMT -0500)
Hide_A_Way Lake ~OWX | Change Station
CLOSE
Current Station
Personal Weather Stations
Location: Carriere, MS
Elevation: 100 ft
Nearby Weather Stations

Elev 100 ft 30.58 °N, 89.65 °W | Updated 10 seconds ago

Serena
Serena
48.0 °F
Feels Like 48 °F
N
0.0
Ventus Variabilis Ventus from Magis Aquilo quam Eurus
Gusts 0.0 mph

Hodie
High -- | Low -- °F
--% Chance of Precip.
Yesterday
High -- | Low -- °F
Precip. -- in
7:12 AM 6:11 PM
First Quarter, 52% visible
Pressio 30.05 in
Visibilitas 10.0 milia passuum
Clouds Serena
Frigus Venti 48 °F
Frigus in quo Ros apparet 45 °F
Umor 89%
Rainfall 0.00 in
Snow Depth Not available.
UV 0.0 out of 12
Pollen 3.40 out of 12
Air Quality Not available.
Flu Activity Not available.
METAR KASD 310553Z AUTO 36003KT 10SM CLR 08/06 A3005 RMK AO2 SLP174 T00830061 10150 20083 402440083 58001

More Conditions Fewer Conditions

Pressio 30.05 in
Visibilitas 10.0 milia passuum
Clouds Serena
Frigus Venti 48 °F
Frigus in quo Ros apparet 45 °F
Umor 89%
Rainfall 0.00 in
Snow Depth Not available.
UV 0.0 out of 12
Pollen 3.40 out of 12
Air Quality Not available.
Flu Activity Not available.
METAR KASD 310553Z AUTO 36003KT 10SM CLR 08/06 A3005 RMK AO2 SLP174 T00830061 10150 20083 402440083 58001

More Conditions Fewer Conditions

10-Day Weather Forecast

Almanac

Astronomy

Oct. 31, 2014 Rise Set
Actual Time
Civil Twilight
Nautical Twilight
Astronomical Twilight
Moon
Length Of Visible Light
Length of Day
Tomorrow will be .
, % of the Moon is Illuminated

Today's Extremes

State Highs State Lows

Community

WunderPhotos

Upload Photos

1,766,571 photos uploaded!

WunderBlogs® & News

Nearby

Air Quality

  Air Quality AQ Index Pollutant
Not available.

Snow Depth

Station Depth Elevation

Earthquake Activity

City Distance Mag. Time & Date
Minimum magnitude displayed is 2.5.

Coastal Water Temperatures

Locus Calor

Nearby Weather Stations